Dades meteomassalio
Diari Summary for Gener 17, 2018 Units:  Both    English   Metric
« Previous Day
Next Day »
Diari Semanal Mensual Anual Personalitzat
  Maxima: Minima: Mijana:
Temperatura: TemperatureC °F /  -17.8 °C 7.2 °F /  -13.8 °C 9.8 °F /  -12.3 °C
Rosada: DewpointC °F /  -17.8 °C 2.5 °F /  -16.4 °C 4.1 °F /  -15.5 °C
Humitat: Humidity % 52 % 67 %
Velocitat del vent: WindSpeedKMH mph /  0 km/h - 31.2 mph /  50.2 km/h
Racha vent: WindSpeedGustKMH mph /  0 km/h - -
Vent:- - NW
Pressio: PressurehPa in /  0 hPa 1023.2 in /  34645.6 hPa -
Pluja: 0.0 in /  0 mm    
Historical Graphs
 
 
Tabular Data for Gener 17, 2018
Time Temperature Dew Point Pressure Wind Wind Speed Wind Gust Humidity Rainfall Rate (Hourly) solar Conditions
TemperatureC °F /  -17.8 °C DewpointC °F /  -17.8 °C PressurehPa in /  0 hPa Calm     Humidity % HourlyPrecipMM in /  0 mm SolarRadiationWatts/m^2 W/m2 Conditions
00:26 10.0 °F /  -12.2 °C 5.2 °F /  -14.9 °C 1025.3 in /  34716.7 hPa WNW 18.5 mph /  29.8 km/h 18.5 mph /  29.8 km/h 72 % 0.0 in /  0 mm 0.0 W/m2 CLR
00:32 9.4 °F /  -12.6 °C 4.4 °F /  -15.3 °C 1025.3 in /  34716.7 hPa NW 14.8 mph /  23.8 km/h 14.8 mph /  23.8 km/h 71 % 0.0 in /  0 mm 0.0 W/m2 CLR
00:39 9.4 °F /  -12.6 °C 4.4 °F /  -15.3 °C 1024.9 in /  34703.1 hPa NW 14.8 mph /  23.8 km/h 14.8 mph /  23.8 km/h 71 % 0.0 in /  0 mm 0.0 W/m2 CLR
01:12 10.0 °F /  -12.2 °C 4.6 °F /  -15.2 °C 1024.6 in /  34693 hPa WNW 24.1 mph /  38.8 km/h 24.1 mph /  38.8 km/h 69 % 0.0 in /  0 mm 0.0 W/m2 CLR
01:49 11.1 °F /  -11.6 °C 5.6 °F /  -14.7 °C 1024.3 in /  34682.8 hPa WNW 14.8 mph /  23.8 km/h 14.8 mph /  23.8 km/h 69 % 0.0 in /  0 mm 0.0 W/m2 CLR
02:01 11.1 °F /  -11.6 °C 5.8 °F /  -14.6 °C 1023.9 in /  34669.3 hPa WNW 16.7 mph /  26.9 km/h 16.7 mph /  26.9 km/h 70 % 0.0 in /  0 mm 0.0 W/m2 CLR
02:08 11.1 °F /  -11.6 °C 5.8 °F /  -14.6 °C 1023.9 in /  34669.3 hPa NW 14.5 mph /  23.3 km/h 14.5 mph /  23.3 km/h 70 % 0.0 in /  0 mm 0.0 W/m2 CLR
02:55 11.1 °F /  -11.6 °C 5.6 °F /  -14.7 °C 1023.6 in /  34659.1 hPa NW 31.5 mph /  50.7 km/h 31.5 mph /  50.7 km/h 69 % 0.0 in /  0 mm 0.0 W/m2 CLR
04:17 11.1 °F /  -11.6 °C 5.6 °F /  -14.7 °C 1023.2 in /  34645.6 hPa NW 20.4 mph /  32.8 km/h 20.4 mph /  32.8 km/h 69 % 0.0 in /  0 mm 0.0 W/m2 CLR
05:29 12.8 °F /  -10.7 °C 7.0 °F /  -13.9 °C 1023.6 in /  34659.1 hPa NW 27.4 mph /  44.1 km/h 27.4 mph /  44.1 km/h 68 % 0.0 in /  0 mm 0.0 W/m2 CLR
06:03 11.7 °F /  -11.3 °C 6.2 °F /  -14.3 °C 1023.6 in /  34659.1 hPa NW 24.1 mph /  38.8 km/h 24.1 mph /  38.8 km/h 69 % 0.0 in /  0 mm 0.0 W/m2 CLR
06:15 12.2 °F /  -11 °C 6.7 °F /  -14.1 °C 1023.6 in /  34659.1 hPa North 37.0 mph /  59.5 km/h 37.0 mph /  59.5 km/h 69 % 0.0 in /  0 mm 0.0 W/m2 CLR
06:54 11.7 °F /  -11.3 °C 6.6 °F /  -14.1 °C 1023.6 in /  34659.1 hPa North 33.3 mph /  53.6 km/h 33.3 mph /  53.6 km/h 71 % 0.0 in /  0 mm 0.0 W/m2 CLR
07:00 11.7 °F /  -11.3 °C 6.6 °F /  -14.1 °C 1023.9 in /  34669.3 hPa NNW 38.9 mph /  62.6 km/h 38.9 mph /  62.6 km/h 71 % 0.0 in /  0 mm 0.0 W/m2 CLR
07:06 11.7 °F /  -11.3 °C 6.6 °F /  -14.1 °C 1023.9 in /  34669.3 hPa North 50.0 mph /  80.5 km/h 50.0 mph /  80.5 km/h 71 % 0.0 in /  0 mm 0.0 W/m2 CLR
07:55 11.7 °F /  -11.3 °C 6.8 °F /  -14 °C 1024.3 in /  34682.8 hPa NW 40.7 mph /  65.5 km/h 40.7 mph /  65.5 km/h 72 % 0.0 in /  0 mm 0.0 W/m2 CLR
08:17 11.1 °F /  -11.6 °C 6.4 °F /  -14.2 °C 1024.6 in /  34693 hPa North 42.6 mph /  68.6 km/h 42.6 mph /  68.6 km/h 73 % 0.0 in /  0 mm 0.0 W/m2 OVC
08:36 11.1 °F /  -11.6 °C 6.7 °F /  -14.1 °C 1024.6 in /  34693 hPa NNW 42.6 mph /  68.6 km/h 42.6 mph /  68.6 km/h 74 % 0.0 in /  0 mm 11.0 W/m2 BKN
08:49 11.1 °F /  -11.6 °C 6.8 °F /  -14 °C 1024.9 in /  34703.1 hPa North 41.8 mph /  67.3 km/h 41.8 mph /  67.3 km/h 75 % 0.0 in /  0 mm 19.0 W/m2 BKN
08:55 11.1 °F /  -11.6 °C 6.8 °F /  -14 °C 1024.9 in /  34703.1 hPa NNW 46.3 mph /  74.5 km/h 46.3 mph /  74.5 km/h 75 % 0.0 in /  0 mm 26.0 W/m2 BKN
09:19 11.1 °F /  -11.6 °C 6.8 °F /  -14 °C 1024.9 in /  34703.1 hPa North 48.1 mph /  77.4 km/h 48.1 mph /  77.4 km/h 75 % 0.0 in /  0 mm 76.0 W/m2 FEW
09:25 11.1 °F /  -11.6 °C 6.7 °F /  -14.1 °C 1024.9 in /  34703.1 hPa North 42.6 mph /  68.6 km/h 42.6 mph /  68.6 km/h 74 % 0.0 in /  0 mm 79.0 W/m2 FEW
09:31 11.1 °F /  -11.6 °C 6.7 °F /  -14.1 °C 1025.3 in /  34716.7 hPa NNW 42.6 mph /  68.6 km/h 42.6 mph /  68.6 km/h 74 % 0.0 in /  0 mm 109.0 W/m2 CLR
09:47 11.1 °F /  -11.6 °C 6.4 °F /  -14.2 °C 1025.3 in /  34716.7 hPa NW 50.0 mph /  80.5 km/h 50.0 mph /  80.5 km/h 73 % 0.0 in /  0 mm 155.0 W/m2 CLR
10:08 11.7 °F /  -11.3 °C 6.6 °F /  -14.1 °C 1025.6 in /  34726.8 hPa North 57.4 mph /  92.4 km/h 57.4 mph /  92.4 km/h 71 % 0.0 in /  0 mm 153.0 W/m2 CLR
10:43 11.7 °F /  -11.3 °C 5.9 °F /  -14.5 °C 1026.6 in /  34760.7 hPa NW 50.0 mph /  80.5 km/h 50.0 mph /  80.5 km/h 68 % 0.0 in /  0 mm 309.0 W/m2 CLR
11:01 12.2 °F /  -11 °C 6.1 °F /  -14.4 °C 1026.6 in /  34760.7 hPa NNW 46.3 mph /  74.5 km/h 46.3 mph /  74.5 km/h 66 % 0.0 in /  0 mm 350.0 W/m2 CLR
11:23 12.2 °F /  -11 °C 5.6 °F /  -14.7 °C 1027.0 in /  34774.2 hPa NNW 35.2 mph /  56.6 km/h 35.2 mph /  56.6 km/h 64 % 0.0 in /  0 mm 388.0 W/m2 CLR
11:29 12.8 °F /  -10.7 °C 5.7 °F /  -14.6 °C 1026.6 in /  34760.7 hPa North 50.0 mph /  80.5 km/h 50.0 mph /  80.5 km/h 62 % 0.0 in /  0 mm 396.0 W/m2 CLR
12:04 12.8 °F /  -10.7 °C 4.7 °F /  -15.2 °C 1026.0 in /  34740.4 hPa NNW 62.9 mph /  101.2 km/h 62.9 mph /  101.2 km/h 58 % 0.0 in /  0 mm 443.0 W/m2 CLR
12:21 12.8 °F /  -10.7 °C 4.4 °F /  -15.3 °C 1025.6 in /  34726.8 hPa NW 77.7 mph /  125 km/h 77.7 mph /  125 km/h 57 % 0.0 in /  0 mm 455.0 W/m2 CLR
12:52 12.8 °F /  -10.7 °C 4.2 °F /  -15.4 °C 1026.3 in /  34750.5 hPa NW 66.6 mph /  107.2 km/h 66.6 mph /  107.2 km/h 56 % 0.0 in /  0 mm 512.0 W/m2 CLR
13:13 13.3 °F /  -10.4 °C 5.2 °F /  -14.9 °C 1025.6 in /  34726.8 hPa North 64.8 mph /  104.3 km/h 64.8 mph /  104.3 km/h 58 % 0.0 in /  0 mm 478.0 W/m2 CLR
13:19 13.3 °F /  -10.4 °C 4.7 °F /  -15.2 °C 1025.3 in /  34716.7 hPa NNW 75.9 mph /  122.1 km/h 75.9 mph /  122.1 km/h 56 % 0.0 in /  0 mm 476.0 W/m2 CLR
13:24 13.3 °F /  -10.4 °C 4.7 °F /  -15.2 °C 1025.6 in /  34726.8 hPa NNW 79.6 mph /  128.1 km/h 79.6 mph /  128.1 km/h 56 % 0.0 in /  0 mm 478.0 W/m2 CLR
13:48 13.3 °F /  -10.4 °C 5.0 °F /  -15 °C 1025.6 in /  34726.8 hPa NNW 61.1 mph /  98.3 km/h 61.1 mph /  98.3 km/h 57 % 0.0 in /  0 mm 468.0 W/m2 CLR
14:01 13.3 °F /  -10.4 °C 5.0 °F /  -15 °C 1025.6 in /  34726.8 hPa NW 62.9 mph /  101.2 km/h 62.9 mph /  101.2 km/h 57 % 0.0 in /  0 mm 464.0 W/m2 CLR
14:21 13.3 °F /  -10.4 °C 5.0 °F /  -15 °C 1025.3 in /  34716.7 hPa NW 50.0 mph /  80.5 km/h 50.0 mph /  80.5 km/h 57 % 0.0 in /  0 mm 445.0 W/m2 CLR
14:28 13.3 °F /  -10.4 °C 4.7 °F /  -15.2 °C 1025.6 in /  34726.8 hPa NNW 57.4 mph /  92.4 km/h 57.4 mph /  92.4 km/h 56 % 0.0 in /  0 mm 436.0 W/m2 CLR
14:42 13.3 °F /  -10.4 °C 5.0 °F /  -15 °C 1024.9 in /  34703.1 hPa North 57.4 mph /  92.4 km/h 57.4 mph /  92.4 km/h 57 % 0.0 in /  0 mm 418.0 W/m2 CLR
14:49 13.3 °F /  -10.4 °C 4.7 °F /  -15.2 °C 1025.3 in /  34716.7 hPa North 57.4 mph /  92.4 km/h 57.4 mph /  92.4 km/h 56 % 0.0 in /  0 mm 406.0 W/m2 CLR
14:57 12.8 °F /  -10.7 °C 4.7 °F /  -15.2 °C 1025.6 in /  34726.8 hPa North 61.1 mph /  98.3 km/h 61.1 mph /  98.3 km/h 58 % 0.0 in /  0 mm 394.0 W/m2 CLR
15:37 12.8 °F /  -10.7 °C 4.2 °F /  -15.4 °C 1025.6 in /  34726.8 hPa NNW 40.7 mph /  65.5 km/h 40.7 mph /  65.5 km/h 56 % 0.0 in /  0 mm 322.0 W/m2 CLR
15:43 12.8 °F /  -10.7 °C 3.7 °F /  -15.7 °C 1026.0 in /  34740.4 hPa NW 38.9 mph /  62.6 km/h 38.9 mph /  62.6 km/h 54 % 0.0 in /  0 mm 308.0 W/m2 CLR
15:49 12.8 °F /  -10.7 °C 3.2 °F /  -16 °C 1026.0 in /  34740.4 hPa NNW 48.1 mph /  77.4 km/h 48.1 mph /  77.4 km/h 52 % 0.0 in /  0 mm 290.0 W/m2 CLR
15:55 12.8 °F /  -10.7 °C 3.7 °F /  -15.7 °C 1026.0 in /  34740.4 hPa NNW 53.7 mph /  86.4 km/h 53.7 mph /  86.4 km/h 54 % 0.0 in /  0 mm 276.0 W/m2 CLR
16:01 12.2 °F /  -11 °C 3.2 °F /  -16 °C 1026.3 in /  34750.5 hPa North 56.3 mph /  90.6 km/h 56.3 mph /  90.6 km/h 54 % 0.0 in /  0 mm 260.0 W/m2 CLR
16:12 12.2 °F /  -11 °C 3.2 °F /  -16 °C 1026.6 in /  34760.7 hPa NW 44.4 mph /  71.5 km/h 44.4 mph /  71.5 km/h 54 % 0.0 in /  0 mm 227.0 W/m2 CLR
16:18 12.2 °F /  -11 °C 3.4 °F /  -15.9 °C 1027.0 in /  34774.2 hPa NW 42.6 mph /  68.6 km/h 42.6 mph /  68.6 km/h 55 % 0.0 in /  0 mm 211.0 W/m2 CLR
16:31 11.7 °F /  -11.3 °C 3.2 °F /  -16 °C 1027.0 in /  34774.2 hPa NW 50.0 mph /  80.5 km/h 50.0 mph /  80.5 km/h 56 % 0.0 in /  0 mm 176.0 W/m2 CLR
16:46 11.7 °F /  -11.3 °C 3.7 °F /  -15.7 °C 1027.0 in /  34774.2 hPa NNW 48.3 mph /  77.7 km/h 48.3 mph /  77.7 km/h 58 % 0.0 in /  0 mm 134.0 W/m2 CLR
16:52 11.7 °F /  -11.3 °C 3.9 °F /  -15.6 °C 1027.3 in /  34784.4 hPa NNW 42.6 mph /  68.6 km/h 42.6 mph /  68.6 km/h 59 % 0.0 in /  0 mm 111.0 W/m2 CLR
17:04 11.1 °F /  -11.6 °C 3.6 °F /  -15.8 °C 1027.3 in /  34784.4 hPa NW 33.3 mph /  53.6 km/h 33.3 mph /  53.6 km/h 60 % 0.0 in /  0 mm 69.0 W/m2 FEW
17:37 10.6 °F /  -11.9 °C 3.3 °F /  -15.9 °C 1028.0 in /  34808.1 hPa NW 31.5 mph /  50.7 km/h 31.5 mph /  50.7 km/h 61 % 0.0 in /  0 mm 16.0 W/m2 BKN
18:22 10.0 °F /  -12.2 °C 3.5 °F /  -15.8 °C 1028.7 in /  34831.8 hPa NW 22.2 mph /  35.7 km/h 22.2 mph /  35.7 km/h 64 % 0.0 in /  0 mm 0.0 W/m2 CLR
18:48 9.4 °F /  -12.6 °C 3.4 °F /  -15.9 °C 1028.7 in /  34831.8 hPa NW 22.5 mph /  36.2 km/h 22.5 mph /  36.2 km/h 66 % 0.0 in /  0 mm 0.0 W/m2 CLR
18:54 9.4 °F /  -12.6 °C 3.6 °F /  -15.8 °C 1028.7 in /  34831.8 hPa NW 30.6 mph /  49.2 km/h 30.6 mph /  49.2 km/h 67 % 0.0 in /  0 mm 0.0 W/m2 CLR
19:01 9.4 °F /  -12.6 °C 3.6 °F /  -15.8 °C 1028.7 in /  34831.8 hPa NW 31.5 mph /  50.7 km/h 31.5 mph /  50.7 km/h 67 % 0.0 in /  0 mm 0.0 W/m2 CLR
19:21 9.4 °F /  -12.6 °C 3.6 °F /  -15.8 °C 1028.7 in /  34831.8 hPa NNW 27.8 mph /  44.7 km/h 27.8 mph /  44.7 km/h 67 % 0.0 in /  0 mm 0.0 W/m2 CLR
19:38 8.9 °F /  -12.8 °C 3.3 °F /  -15.9 °C 1029.0 in /  34841.9 hPa NNW 24.1 mph /  38.8 km/h 24.1 mph /  38.8 km/h 68 % 0.0 in /  0 mm 0.0 W/m2 CLR
19:45 8.9 °F /  -12.8 °C 3.3 °F /  -15.9 °C 1029.0 in /  34841.9 hPa NW 14.8 mph /  23.8 km/h 14.8 mph /  23.8 km/h 68 % 0.0 in /  0 mm 0.0 W/m2 CLR
20:15 8.9 °F /  -12.8 °C 3.5 °F /  -15.8 °C 1029.3 in /  34852.1 hPa NNW 27.8 mph /  44.7 km/h 27.8 mph /  44.7 km/h 69 % 0.0 in /  0 mm 0.0 W/m2 CLR
20:37 8.9 °F /  -12.8 °C 3.7 °F /  -15.7 °C 1029.7 in /  34865.6 hPa NW 29.6 mph /  47.6 km/h 29.6 mph /  47.6 km/h 70 % 0.0 in /  0 mm 0.0 W/m2 CLR
20:42 8.9 °F /  -12.8 °C 3.7 °F /  -15.7 °C 1029.3 in /  34852.1 hPa NW 20.4 mph /  32.8 km/h 20.4 mph /  32.8 km/h 70 % 0.0 in /  0 mm 0.0 W/m2 CLR
20:47 8.3 °F /  -13.2 °C 3.4 °F /  -15.9 °C 1029.3 in /  34852.1 hPa NW 18.5 mph /  29.8 km/h 18.5 mph /  29.8 km/h 71 % 0.0 in /  0 mm 0.0 W/m2 CLR
20:52 8.3 °F /  -13.2 °C 3.4 °F /  -15.9 °C 1029.3 in /  34852.1 hPa WNW 18.5 mph /  29.8 km/h 18.5 mph /  29.8 km/h 71 % 0.0 in /  0 mm 0.0 W/m2 CLR
20:57 8.3 °F /  -13.2 °C 3.4 °F /  -15.9 °C 1029.3 in /  34852.1 hPa WSW 11.1 mph /  17.9 km/h 11.1 mph /  17.9 km/h 71 % 0.0 in /  0 mm 0.0 W/m2 CLR
21:03 8.9 °F /  -12.8 °C 3.9 °F /  -15.6 °C 1029.3 in /  34852.1 hPa WNW 16.7 mph /  26.9 km/h 16.7 mph /  26.9 km/h 71 % 0.0 in /  0 mm 0.0 W/m2 CLR
21:08 8.3 °F /  -13.2 °C 3.4 °F /  -15.9 °C 1029.3 in /  34852.1 hPa WNW 18.5 mph /  29.8 km/h 18.5 mph /  29.8 km/h 71 % 0.0 in /  0 mm 0.0 W/m2 CLR
21:13 8.3 °F /  -13.2 °C 3.2 °F /  -16 °C 1029.3 in /  34852.1 hPa NW 14.8 mph /  23.8 km/h 14.8 mph /  23.8 km/h 70 % 0.0 in /  0 mm 0.0 W/m2 CLR
21:15 8.3 °F /  -13.2 °C 3.2 °F /  -16 °C 1029.3 in /  34852.1 hPa WNW 14.8 mph /  23.8 km/h 14.8 mph /  23.8 km/h 70 % 0.0 in /  0 mm 0.0 W/m2 CLR
21:19 7.8 °F /  -13.4 °C 2.7 °F /  -16.3 °C 1029.7 in /  34865.6 hPa WNW 16.7 mph /  26.9 km/h 16.7 mph /  26.9 km/h 70 % 0.0 in /  0 mm 0.0 W/m2 CLR
21:25 7.8 °F /  -13.4 °C 2.7 °F /  -16.3 °C 1029.7 in /  34865.6 hPa WNW 18.5 mph /  29.8 km/h 18.5 mph /  29.8 km/h 70 % 0.0 in /  0 mm 0.0 W/m2 CLR
21:30 7.8 °F /  -13.4 °C 2.7 °F /  -16.3 °C 1029.7 in /  34865.6 hPa WNW 19.3 mph /  31.1 km/h 19.3 mph /  31.1 km/h 70 % 0.0 in /  0 mm 0.0 W/m2 CLR
21:35 7.8 °F /  -13.4 °C 2.7 °F /  -16.3 °C 1029.3 in /  34852.1 hPa WNW 19.3 mph /  31.1 km/h 19.3 mph /  31.1 km/h 70 % 0.0 in /  0 mm 0.0 W/m2 CLR
21:36 7.8 °F /  -13.4 °C 2.7 °F /  -16.3 °C 1029.3 in /  34852.1 hPa West 16.7 mph /  26.9 km/h 16.7 mph /  26.9 km/h 70 % 0.0 in /  0 mm 0.0 W/m2 CLR
21:41 7.8 °F /  -13.4 °C 2.7 °F /  -16.3 °C 1029.7 in /  34865.6 hPa NW 20.4 mph /  32.8 km/h 20.4 mph /  32.8 km/h 70 % 0.0 in /  0 mm 0.0 W/m2 CLR
21:43 7.8 °F /  -13.4 °C 2.7 °F /  -16.3 °C 1029.7 in /  34865.6 hPa WNW 16.7 mph /  26.9 km/h 16.7 mph /  26.9 km/h 70 % 0.0 in /  0 mm 0.0 W/m2 CLR
21:46 7.8 °F /  -13.4 °C 2.7 °F /  -16.3 °C 1029.7 in /  34865.6 hPa West 14.8 mph /  23.8 km/h 14.8 mph /  23.8 km/h 70 % 0.0 in /  0 mm 0.0 W/m2 CLR
21:51 7.8 °F /  -13.4 °C 2.8 °F /  -16.2 °C 1029.7 in /  34865.6 hPa West 11.1 mph /  17.9 km/h 11.1 mph /  17.9 km/h 71 % 0.0 in /  0 mm 0.0 W/m2 CLR
21:56 7.8 °F /  -13.4 °C 3.1 °F /  -16.1 °C 1029.7 in /  34865.6 hPa West 19.3 mph /  31.1 km/h 19.3 mph /  31.1 km/h 72 % 0.0 in /  0 mm 0.0 W/m2 CLR
22:01 7.8 °F /  -13.4 °C 3.2 °F /  -16 °C 1029.7 in /  34865.6 hPa WNW 22.2 mph /  35.7 km/h 22.2 mph /  35.7 km/h 73 % 0.0 in /  0 mm 0.0 W/m2 CLR
22:05 7.2 °F /  -13.8 °C 2.7 °F /  -16.3 °C 1029.7 in /  34865.6 hPa WNW 18.5 mph /  29.8 km/h 18.5 mph /  29.8 km/h 73 % 0.0 in /  0 mm 0.0 W/m2 CLR
22:10 7.8 °F /  -13.4 °C 3.2 °F /  -16 °C 1029.7 in /  34865.6 hPa West 16.1 mph /  25.9 km/h 16.1 mph /  25.9 km/h 73 % 0.0 in /  0 mm 0.0 W/m2 CLR
22:11 7.8 °F /  -13.4 °C 3.2 °F /  -16 °C 1029.7 in /  34865.6 hPa NW 18.5 mph /  29.8 km/h 18.5 mph /  29.8 km/h 73 % 0.0 in /  0 mm 0.0 W/m2 CLR
22:15 7.8 °F /  -13.4 °C 3.2 °F /  -16 °C 1029.7 in /  34865.6 hPa WSW 13.0 mph /  20.9 km/h 13.0 mph /  20.9 km/h 73 % 0.0 in /  0 mm 0.0 W/m2 CLR
22:19 7.8 °F /  -13.4 °C 3.2 °F /  -16 °C 1029.7 in /  34865.6 hPa West 18.5 mph /  29.8 km/h 18.5 mph /  29.8 km/h 73 % 0.0 in /  0 mm 0.0 W/m2 CLR
22:20 7.8 °F /  -13.4 °C 3.2 °F /  -16 °C 1029.7 in /  34865.6 hPa WNW 18.5 mph /  29.8 km/h 18.5 mph /  29.8 km/h 73 % 0.0 in /  0 mm 0.0 W/m2 CLR
22:21 7.8 °F /  -13.4 °C 3.2 °F /  -16 °C 1029.7 in /  34865.6 hPa West 24.1 mph /  38.8 km/h 24.1 mph /  38.8 km/h 73 % 0.0 in /  0 mm 0.0 W/m2 CLR
22:22 7.8 °F /  -13.4 °C 3.2 °F /  -16 °C 1029.7 in /  34865.6 hPa West 27.8 mph /  44.7 km/h 27.8 mph /  44.7 km/h 73 % 0.0 in /  0 mm 0.0 W/m2 CLR
22:26 7.8 °F /  -13.4 °C 3.2 °F /  -16 °C 1029.7 in /  34865.6 hPa WNW 27.8 mph /  44.7 km/h 27.8 mph /  44.7 km/h 73 % 0.0 in /  0 mm 0.0 W/m2 CLR
22:31 7.8 °F /  -13.4 °C 3.1 °F /  -16.1 °C 1029.7 in /  34865.6 hPa WNW 22.5 mph /  36.2 km/h 22.5 mph /  36.2 km/h 72 % 0.0 in /  0 mm 0.0 W/m2 CLR
22:32 7.8 °F /  -13.4 °C 3.1 °F /  -16.1 °C 1029.7 in /  34865.6 hPa WNW 25.9 mph /  41.7 km/h 25.9 mph /  41.7 km/h 72 % 0.0 in /  0 mm 0.0 W/m2 CLR
22:34 7.8 °F /  -13.4 °C 3.1 °F /  -16.1 °C 1030.0 in /  34875.8 hPa WNW 22.5 mph /  36.2 km/h 22.5 mph /  36.2 km/h 72 % 0.0 in /  0 mm 0.0 W/m2 CLR
22:39 7.8 °F /  -13.4 °C 2.8 °F /  -16.2 °C 1030.0 in /  34875.8 hPa West 20.4 mph /  32.8 km/h 20.4 mph /  32.8 km/h 71 % 0.0 in /  0 mm 0.0 W/m2 CLR
22:40 7.8 °F /  -13.4 °C 2.8 °F /  -16.2 °C 1030.0 in /  34875.8 hPa WNW 25.7 mph /  41.4 km/h 25.7 mph /  41.4 km/h 71 % 0.0 in /  0 mm 0.0 W/m2 CLR
22:45 7.8 °F /  -13.4 °C 2.8 °F /  -16.2 °C 1030.0 in /  34875.8 hPa SW 18.5 mph /  29.8 km/h 18.5 mph /  29.8 km/h 71 % 0.0 in /  0 mm 0.0 W/m2 CLR
22:48 7.8 °F /  -13.4 °C 2.8 °F /  -16.2 °C 1030.0 in /  34875.8 hPa West 18.5 mph /  29.8 km/h 18.5 mph /  29.8 km/h 71 % 0.0 in /  0 mm 0.0 W/m2 CLR
22:50 8.3 °F /  -13.2 °C 3.4 °F /  -15.9 °C 1030.0 in /  34875.8 hPa West 11.1 mph /  17.9 km/h 11.1 mph /  17.9 km/h 71 % 0.0 in /  0 mm 0.0 W/m2 CLR
22:55 7.8 °F /  -13.4 °C 3.1 °F /  -16.1 °C 1030.0 in /  34875.8 hPa WNW 16.7 mph /  26.9 km/h 16.7 mph /  26.9 km/h 72 % 0.0 in /  0 mm 0.0 W/m2 CLR
23:01 7.8 °F /  -13.4 °C 3.1 °F /  -16.1 °C 1030.0 in /  34875.8 hPa NW 18.5 mph /  29.8 km/h 18.5 mph /  29.8 km/h 72 % 0.0 in /  0 mm 0.0 W/m2 CLR
23:06 7.8 °F /  -13.4 °C 2.8 °F /  -16.2 °C 1030.0 in /  34875.8 hPa WNW 18.5 mph /  29.8 km/h 18.5 mph /  29.8 km/h 71 % 0.0 in /  0 mm 0.0 W/m2 CLR
23:11 7.8 °F /  -13.4 °C 2.8 °F /  -16.2 °C 1030.0 in /  34875.8 hPa WNW 24.1 mph /  38.8 km/h 24.1 mph /  38.8 km/h 71 % 0.0 in /  0 mm 0.0 W/m2 CLR
23:16 7.8 °F /  -13.4 °C 2.8 °F /  -16.2 °C 1030.0 in /  34875.8 hPa West 18.5 mph /  29.8 km/h 18.5 mph /  29.8 km/h 71 % 0.0 in /  0 mm 0.0 W/m2 CLR
23:21 7.8 °F /  -13.4 °C 2.8 °F /  -16.2 °C 1030.0 in /  34875.8 hPa WNW 16.7 mph /  26.9 km/h 16.7 mph /  26.9 km/h 71 % 0.0 in /  0 mm 0.0 W/m2 CLR
23:26 7.2 °F /  -13.8 °C 2.5 °F /  -16.4 °C 1029.7 in /  34865.6 hPa NW 20.4 mph /  32.8 km/h 20.4 mph /  32.8 km/h 72 % 0.0 in /  0 mm 0.0 W/m2 CLR
23:31 7.2 °F /  -13.8 °C 2.5 °F /  -16.4 °C 1030.0 in /  34875.8 hPa WNW 24.1 mph /  38.8 km/h 24.1 mph /  38.8 km/h 72 % 0.0 in /  0 mm 0.0 W/m2 CLR
23:36 7.8 °F /  -13.4 °C 3.1 °F /  -16.1 °C 1030.0 in /  34875.8 hPa West 11.3 mph /  18.2 km/h 11.3 mph /  18.2 km/h 72 % 0.0 in /  0 mm 0.0 W/m2 CLR
23:41 7.8 °F /  -13.4 °C 3.1 °F /  -16.1 °C 1030.0 in /  34875.8 hPa NW 16.7 mph /  26.9 km/h 16.7 mph /  26.9 km/h 72 % 0.0 in /  0 mm 0.0 W/m2 CLR
23:46 7.2 °F /  -13.8 °C 2.7 °F /  -16.3 °C 1029.7 in /  34865.6 hPa WNW 22.2 mph /  35.7 km/h 22.2 mph /  35.7 km/h 73 % 0.0 in /  0 mm 0.0 W/m2 CLR
23:51 7.8 °F /  -13.4 °C 3.1 °F /  -16.1 °C 1030.0 in /  34875.8 hPa West 18.5 mph /  29.8 km/h 18.5 mph /  29.8 km/h 72 % 0.0 in /  0 mm 0.0 W/m2 CLR
23:56 7.8 °F /  -13.4 °C 3.2 °F /  -16 °C 1030.0 in /  34875.8 hPa WNW 14.8 mph /  23.8 km/h 14.8 mph /  23.8 km/h 73 % 0.0 in /  0 mm 0.0 W/m2 CLR
Lo Temps de Massalio
Compliments of Weather Underground - 768 kb